sensor_id;sensor_type;location;lat;lon;timestamp;P1;durP1;ratioP1;P2;durP2;ratioP2
47575;SDS011;33304;52.456;13.328;2023-05-07T00:01:42;5.17;;;4.10;;
47575;SDS011;33304;52.456;13.328;2023-05-07T00:04:10;5.60;;;5.00;;
47575;SDS011;33304;52.456;13.328;2023-05-07T00:06:38;5.07;;;4.57;;
47575;SDS011;33304;52.456;13.328;2023-05-07T00:09:06;6.80;;;3.80;;
47575;SDS011;33304;52.456;13.328;2023-05-07T00:11:33;6.03;;;4.30;;
47575;SDS011;33304;52.456;13.328;2023-05-07T00:14:00;4.67;;;4.27;;
47575;SDS011;33304;52.456;13.328;2023-05-07T00:16:28;4.30;;;3.90;;
47575;SDS011;33304;52.456;13.328;2023-05-07T00:18:55;4.30;;;3.90;;
47575;SDS011;33304;52.456;13.328;2023-05-07T00:21:23;4.63;;;4.20;;
47575;SDS011;33304;52.456;13.328;2023-05-07T00:23:52;4.17;;;3.80;;
47575;SDS011;33304;52.456;13.328;2023-05-07T00:26:19;4.30;;;3.90;;
47575;SDS011;33304;52.456;13.328;2023-05-07T00:28:49;4.10;;;3.70;;
47575;SDS011;33304;52.456;13.328;2023-05-07T00:31:16;4.47;;;4.07;;
47575;SDS011;33304;52.456;13.328;2023-05-07T00:33:43;4.30;;;3.90;;
47575;SDS011;33304;52.456;13.328;2023-05-07T00:36:10;4.30;;;3.90;;
47575;SDS011;33304;52.456;13.328;2023-05-07T00:38:39;3.90;;;3.60;;
47575;SDS011;33304;52.456;13.328;2023-05-07T00:41:06;3.63;;;3.33;;
47575;SDS011;33304;52.456;13.328;2023-05-07T00:43:33;5.40;;;3.83;;
47575;SDS011;33304;52.456;13.328;2023-05-07T00:46:00;3.80;;;3.37;;
47575;SDS011;33304;52.456;13.328;2023-05-07T00:48:27;3.80;;;3.17;;
47575;SDS011;33304;52.456;13.328;2023-05-07T00:50:55;3.40;;;3.10;;
47575;SDS011;33304;52.456;13.328;2023-05-07T00:53:23;3.73;;;3.17;;
47575;SDS011;33304;52.456;13.328;2023-05-07T00:55:52;3.50;;;3.20;;
47575;SDS011;33304;52.456;13.328;2023-05-07T00:58:19;3.30;;;2.93;;
47575;SDS011;33304;52.456;13.328;2023-05-07T01:00:47;4.13;;;3.47;;
47575;SDS011;33304;52.456;13.328;2023-05-07T01:03:15;3.63;;;3.33;;
47575;SDS011;33304;52.456;13.328;2023-05-07T01:05:42;3.53;;;3.23;;
47575;SDS011;33304;52.456;13.328;2023-05-07T01:08:11;3.30;;;3.00;;
47575;SDS011;33304;52.456;13.328;2023-05-07T01:10:39;3.43;;;3.00;;
47575;SDS011;33304;52.456;13.328;2023-05-07T01:13:09;3.93;;;3.33;;
47575;SDS011;33304;52.456;13.328;2023-05-07T01:15:37;3.03;;;2.83;;
47575;SDS011;33304;52.456;13.328;2023-05-07T01:18:06;4.03;;;3.27;;
47575;SDS011;33304;52.456;13.328;2023-05-07T01:20:35;3.57;;;3.27;;
47575;SDS011;33304;52.456;13.328;2023-05-07T01:23:03;3.90;;;3.50;;
47575;SDS011;33304;52.456;13.328;2023-05-07T01:25:31;4.07;;;3.67;;
47575;SDS011;33304;52.456;13.328;2023-05-07T01:28:00;3.33;;;3.03;;
47575;SDS011;33304;52.456;13.328;2023-05-07T01:30:31;4.23;;;3.53;;
47575;SDS011;33304;52.456;13.328;2023-05-07T01:33:03;3.80;;;3.40;;
47575;SDS011;33304;52.456;13.328;2023-05-07T01:35:34;3.17;;;2.87;;
47575;SDS011;33304;52.456;13.328;2023-05-07T01:38:06;4.10;;;3.70;;
47575;SDS011;33304;52.456;13.328;2023-05-07T01:40:34;3.80;;;3.33;;
47575;SDS011;33304;52.456;13.328;2023-05-07T01:43:01;3.83;;;3.53;;
47575;SDS011;33304;52.456;13.328;2023-05-07T01:45:29;4.63;;;2.93;;
47575;SDS011;33304;52.456;13.328;2023-05-07T01:47:58;4.43;;;4.03;;
47575;SDS011;33304;52.456;13.328;2023-05-07T01:50:25;3.27;;;2.97;;
47575;SDS011;33304;52.456;13.328;2023-05-07T01:52:53;3.90;;;3.60;;
47575;SDS011;33304;52.456;13.328;2023-05-07T01:55:22;3.83;;;3.43;;
47575;SDS011;33304;52.456;13.328;2023-05-07T01:57:50;6.00;;;3.50;;
47575;SDS011;33304;52.456;13.328;2023-05-07T02:00:18;3.97;;;3.57;;
47575;SDS011;33304;52.456;13.328;2023-05-07T02:02:45;3.70;;;3.40;;
47575;SDS011;33304;52.456;13.328;2023-05-07T02:05:25;3.70;;;3.40;;
47575;SDS011;33304;52.456;13.328;2023-05-07T02:08:00;3.67;;;3.37;;
47575;SDS011;33304;52.456;13.328;2023-05-07T02:10:30;3.87;;;3.57;;
47575;SDS011;33304;52.456;13.328;2023-05-07T02:12:58;4.37;;;3.70;;
47575;SDS011;33304;52.456;13.328;2023-05-07T02:15:27;3.73;;;3.43;;
47575;SDS011;33304;52.456;13.328;2023-05-07T02:17:58;3.50;;;3.20;;
47575;SDS011;33304;52.456;13.328;2023-05-07T02:20:26;3.40;;;3.13;;
47575;SDS011;33304;52.456;13.328;2023-05-07T02:22:54;4.10;;;3.70;;
47575;SDS011;33304;52.456;13.328;2023-05-07T02:25:21;3.40;;;3.10;;
47575;SDS011;33304;52.456;13.328;2023-05-07T02:27:49;4.00;;;3.60;;
47575;SDS011;33304;52.456;13.328;2023-05-07T02:30:19;3.80;;;3.50;;
47575;SDS011;33304;52.456;13.328;2023-05-07T02:32:47;3.47;;;3.17;;
47575;SDS011;33304;52.456;13.328;2023-05-07T02:35:14;3.00;;;2.70;;
47575;SDS011;33304;52.456;13.328;2023-05-07T02:37:41;2.90;;;2.70;;
47575;SDS011;33304;52.456;13.328;2023-05-07T02:40:09;4.13;;;3.17;;
47575;SDS011;33304;52.456;13.328;2023-05-07T02:42:37;3.30;;;3.10;;
47575;SDS011;33304;52.456;13.328;2023-05-07T02:45:07;3.83;;;3.33;;
47575;SDS011;33304;52.456;13.328;2023-05-07T02:47:35;3.90;;;3.50;;
47575;SDS011;33304;52.456;13.328;2023-05-07T02:50:03;3.57;;;3.27;;
47575;SDS011;33304;52.456;13.328;2023-05-07T02:52:31;4.87;;;3.20;;
47575;SDS011;33304;52.456;13.328;2023-05-07T02:54:59;3.53;;;3.23;;
47575;SDS011;33304;52.456;13.328;2023-05-07T02:57:26;4.10;;;3.03;;
47575;SDS011;33304;52.456;13.328;2023-05-07T02:59:53;5.07;;;3.50;;
47575;SDS011;33304;52.456;13.328;2023-05-07T03:02:22;3.40;;;3.10;;
47575;SDS011;33304;52.456;13.328;2023-05-07T03:04:50;3.80;;;3.50;;
47575;SDS011;33304;52.456;13.328;2023-05-07T03:07:18;4.23;;;3.47;;
47575;SDS011;33304;52.456;13.328;2023-05-07T03:09:45;4.97;;;3.53;;
47575;SDS011;33304;52.456;13.328;2023-05-07T03:12:12;3.87;;;3.33;;
47575;SDS011;33304;52.456;13.328;2023-05-07T03:14:39;3.50;;;3.20;;
47575;SDS011;33304;52.456;13.328;2023-05-07T03:17:06;3.53;;;3.23;;
47575;SDS011;33304;52.456;13.328;2023-05-07T03:19:35;3.50;;;3.03;;
47575;SDS011;33304;52.456;13.328;2023-05-07T03:22:02;3.43;;;3.13;;
47575;SDS011;33304;52.456;13.328;2023-05-07T03:24:29;3.53;;;3.23;;
47575;SDS011;33304;52.456;13.328;2023-05-07T03:26:56;5.70;;;4.10;;
47575;SDS011;33304;52.456;13.328;2023-05-07T03:29:24;3.97;;;3.57;;
47575;SDS011;33304;52.456;13.328;2023-05-07T03:31:52;4.20;;;3.50;;
47575;SDS011;33304;52.456;13.328;2023-05-07T03:34:19;3.60;;;3.30;;
47575;SDS011;33304;52.456;13.328;2023-05-07T03:36:49;3.83;;;3.43;;
47575;SDS011;33304;52.456;13.328;2023-05-07T03:39:17;5.17;;;3.30;;
47575;SDS011;33304;52.456;13.328;2023-05-07T03:41:44;3.27;;;2.97;;
47575;SDS011;33304;52.456;13.328;2023-05-07T03:44:12;3.80;;;3.37;;
47575;SDS011;33304;52.456;13.328;2023-05-07T03:46:40;5.33;;;2.90;;
47575;SDS011;33304;52.456;13.328;2023-05-07T03:49:09;2.80;;;2.60;;
47575;SDS011;33304;52.456;13.328;2023-05-07T03:51:36;3.50;;;3.13;;
47575;SDS011;33304;52.456;13.328;2023-05-07T03:54:07;4.20;;;3.80;;
47575;SDS011;33304;52.456;13.328;2023-05-07T03:56:34;3.50;;;3.07;;
47575;SDS011;33304;52.456;13.328;2023-05-07T03:59:01;4.57;;;3.70;;
47575;SDS011;33304;52.456;13.328;2023-05-07T04:01:28;3.20;;;3.00;;
47575;SDS011;33304;52.456;13.328;2023-05-07T04:03:56;3.67;;;3.20;;
47575;SDS011;33304;52.456;13.328;2023-05-07T04:06:23;3.73;;;3.03;;
47575;SDS011;33304;52.456;13.328;2023-05-07T04:08:51;3.23;;;2.93;;
47575;SDS011;33304;52.456;13.328;2023-05-07T04:11:19;2.97;;;2.67;;
47575;SDS011;33304;52.456;13.328;2023-05-07T04:13:46;3.23;;;2.80;;
47575;SDS011;33304;52.456;13.328;2023-05-07T04:16:15;3.43;;;3.13;;
47575;SDS011;33304;52.456;13.328;2023-05-07T04:18:42;3.00;;;2.80;;
47575;SDS011;33304;52.456;13.328;2023-05-07T04:21:13;3.60;;;2.73;;
47575;SDS011;33304;52.456;13.328;2023-05-07T04:23:41;3.00;;;2.80;;
47575;SDS011;33304;52.456;13.328;2023-05-07T04:26:10;3.60;;;3.30;;
47575;SDS011;33304;52.456;13.328;2023-05-07T04:28:42;3.53;;;3.23;;
47575;SDS011;33304;52.456;13.328;2023-05-07T04:31:09;3.63;;;3.30;;
47575;SDS011;33304;52.456;13.328;2023-05-07T04:33:37;3.23;;;2.93;;
47575;SDS011;33304;52.456;13.328;2023-05-07T04:36:07;4.97;;;3.80;;
47575;SDS011;33304;52.456;13.328;2023-05-07T04:38:41;2.80;;;2.60;;
47575;SDS011;33304;52.456;13.328;2023-05-07T04:41:08;3.90;;;2.80;;
47575;SDS011;33304;52.456;13.328;2023-05-07T04:43:39;3.47;;;3.17;;
47575;SDS011;33304;52.456;13.328;2023-05-07T04:46:09;3.17;;;2.87;;
47575;SDS011;33304;52.456;13.328;2023-05-07T04:48:37;3.30;;;2.73;;
47575;SDS011;33304;52.456;13.328;2023-05-07T04:51:05;3.83;;;2.83;;
47575;SDS011;33304;52.456;13.328;2023-05-07T04:53:33;2.70;;;2.50;;
47575;SDS011;33304;52.456;13.328;2023-05-07T04:56:00;3.07;;;2.77;;
47575;SDS011;33304;52.456;13.328;2023-05-07T04:58:33;3.33;;;2.60;;
47575;SDS011;33304;52.456;13.328;2023-05-07T05:01:02;2.90;;;2.70;;
47575;SDS011;33304;52.456;13.328;2023-05-07T05:03:29;3.07;;;2.70;;
47575;SDS011;33304;52.456;13.328;2023-05-07T05:05:57;2.60;;;2.40;;
47575;SDS011;33304;52.456;13.328;2023-05-07T05:08:28;4.33;;;2.83;;
47575;SDS011;33304;52.456;13.328;2023-05-07T05:10:56;5.40;;;3.20;;
47575;SDS011;33304;52.456;13.328;2023-05-07T05:13:23;2.97;;;2.77;;
47575;SDS011;33304;52.456;13.328;2023-05-07T05:15:51;3.23;;;2.30;;
47575;SDS011;33304;52.456;13.328;2023-05-07T05:18:19;3.23;;;2.93;;
47575;SDS011;33304;52.456;13.328;2023-05-07T05:20:47;3.57;;;2.80;;
47575;SDS011;33304;52.456;13.328;2023-05-07T05:23:15;3.03;;;2.10;;
47575;SDS011;33304;52.456;13.328;2023-05-07T05:25:43;2.80;;;2.60;;
47575;SDS011;33304;52.456;13.328;2023-05-07T05:28:12;2.50;;;2.30;;
47575;SDS011;33304;52.456;13.328;2023-05-07T05:30:39;2.97;;;2.77;;
47575;SDS011;33304;52.456;13.328;2023-05-07T05:33:07;4.53;;;2.67;;
47575;SDS011;33304;52.456;13.328;2023-05-07T05:35:36;2.90;;;2.70;;
47575;SDS011;33304;52.456;13.328;2023-05-07T05:38:05;2.70;;;2.50;;
47575;SDS011;33304;52.456;13.328;2023-05-07T05:40:33;3.30;;;2.87;;
47575;SDS011;33304;52.456;13.328;2023-05-07T05:43:00;2.67;;;2.40;;
47575;SDS011;33304;52.456;13.328;2023-05-07T05:45:27;2.73;;;2.20;;
47575;SDS011;33304;52.456;13.328;2023-05-07T05:47:55;3.97;;;2.40;;
47575;SDS011;33304;52.456;13.328;2023-05-07T05:50:23;2.60;;;2.40;;
47575;SDS011;33304;52.456;13.328;2023-05-07T05:52:52;2.33;;;2.07;;
47575;SDS011;33304;52.456;13.328;2023-05-07T05:55:20;2.30;;;2.10;;
47575;SDS011;33304;52.456;13.328;2023-05-07T05:57:48;3.60;;;2.00;;
47575;SDS011;33304;52.456;13.328;2023-05-07T06:00:15;2.60;;;2.40;;
47575;SDS011;33304;52.456;13.328;2023-05-07T06:02:46;2.63;;;2.27;;
47575;SDS011;33304;52.456;13.328;2023-05-07T06:05:19;2.30;;;2.10;;
47575;SDS011;33304;52.456;13.328;2023-05-07T06:07:50;2.67;;;2.47;;
47575;SDS011;33304;52.456;13.328;2023-05-07T06:10:19;2.17;;;1.97;;
47575;SDS011;33304;52.456;13.328;2023-05-07T06:12:46;2.40;;;2.20;;
47575;SDS011;33304;52.456;13.328;2023-05-07T06:15:14;3.83;;;2.17;;
47575;SDS011;33304;52.456;13.328;2023-05-07T06:17:42;2.80;;;2.60;;
47575;SDS011;33304;52.456;13.328;2023-05-07T06:20:10;2.90;;;2.47;;
47575;SDS011;33304;52.456;13.328;2023-05-07T06:22:38;2.57;;;2.27;;
47575;SDS011;33304;52.456;13.328;2023-05-07T06:25:07;2.43;;;2.23;;
47575;SDS011;33304;52.456;13.328;2023-05-07T06:27:36;2.30;;;2.10;;
47575;SDS011;33304;52.456;13.328;2023-05-07T06:30:05;2.43;;;2.23;;
47575;SDS011;33304;52.456;13.328;2023-05-07T06:32:33;2.27;;;2.07;;
47575;SDS011;33304;52.456;13.328;2023-05-07T06:35:00;3.70;;;2.07;;
47575;SDS011;33304;52.456;13.328;2023-05-07T06:37:27;2.33;;;2.13;;
47575;SDS011;33304;52.456;13.328;2023-05-07T06:40:02;1.83;;;1.70;;
47575;SDS011;33304;52.456;13.328;2023-05-07T06:42:31;2.20;;;2.00;;
47575;SDS011;33304;52.456;13.328;2023-05-07T06:45:16;2.50;;;2.30;;
47575;SDS011;33304;52.456;13.328;2023-05-07T06:47:44;2.53;;;2.33;;
47575;SDS011;33304;52.456;13.328;2023-05-07T06:50:11;2.30;;;2.10;;
47575;SDS011;33304;52.456;13.328;2023-05-07T06:52:39;2.27;;;2.07;;
47575;SDS011;33304;52.456;13.328;2023-05-07T06:55:06;2.17;;;2.00;;
47575;SDS011;33304;52.456;13.328;2023-05-07T06:57:34;3.37;;;1.77;;
47575;SDS011;33304;52.456;13.328;2023-05-07T07:00:01;2.17;;;2.00;;
47575;SDS011;33304;52.456;13.328;2023-05-07T07:02:32;2.40;;;2.20;;
47575;SDS011;33304;52.456;13.328;2023-05-07T07:04:59;2.13;;;2.03;;
47575;SDS011;33304;52.456;13.328;2023-05-07T07:07:26;2.47;;;1.90;;
47575;SDS011;33304;52.456;13.328;2023-05-07T07:09:53;3.60;;;1.97;;
47575;SDS011;33304;52.456;13.328;2023-05-07T07:12:21;2.07;;;1.97;;
47575;SDS011;33304;52.456;13.328;2023-05-07T07:14:50;2.40;;;2.20;;
47575;SDS011;33304;52.456;13.328;2023-05-07T07:17:17;2.27;;;2.07;;
47575;SDS011;33304;52.456;13.328;2023-05-07T07:19:46;1.90;;;1.80;;
47575;SDS011;33304;52.456;13.328;2023-05-07T07:22:13;2.10;;;1.90;;
47575;SDS011;33304;52.456;13.328;2023-05-07T07:24:41;4.07;;;2.20;;
47575;SDS011;33304;52.456;13.328;2023-05-07T07:27:10;1.80;;;1.70;;
47575;SDS011;33304;52.456;13.328;2023-05-07T07:29:38;2.70;;;1.93;;
47575;SDS011;33304;52.456;13.328;2023-05-07T07:32:06;1.90;;;1.80;;
47575;SDS011;33304;52.456;13.328;2023-05-07T07:34:34;2.50;;;2.30;;
47575;SDS011;33304;52.456;13.328;2023-05-07T07:37:03;1.73;;;1.63;;
47575;SDS011;33304;52.456;13.328;2023-05-07T07:39:32;1.60;;;1.50;;
47575;SDS011;33304;52.456;13.328;2023-05-07T07:41:59;2.67;;;2.00;;
47575;SDS011;33304;52.456;13.328;2023-05-07T07:44:28;1.70;;;1.60;;
47575;SDS011;33304;52.456;13.328;2023-05-07T07:47:00;1.60;;;1.50;;
47575;SDS011;33304;52.456;13.328;2023-05-07T07:49:28;1.50;;;1.40;;
47575;SDS011;33304;52.456;13.328;2023-05-07T07:51:57;3.20;;;1.77;;
47575;SDS011;33304;52.456;13.328;2023-05-07T07:54:26;2.87;;;1.90;;
47575;SDS011;33304;52.456;13.328;2023-05-07T07:56:55;1.70;;;1.60;;
47575;SDS011;33304;52.456;13.328;2023-05-07T07:59:22;1.90;;;1.73;;
47575;SDS011;33304;52.456;13.328;2023-05-07T08:01:50;1.50;;;1.40;;
47575;SDS011;33304;52.456;13.328;2023-05-07T08:04:19;2.67;;;1.67;;
47575;SDS011;33304;52.456;13.328;2023-05-07T08:06:46;1.30;;;1.20;;
47575;SDS011;33304;52.456;13.328;2023-05-07T08:09:14;1.50;;;1.40;;
47575;SDS011;33304;52.456;13.328;2023-05-07T08:11:42;1.47;;;1.37;;
47575;SDS011;33304;52.456;13.328;2023-05-07T08:14:10;1.33;;;1.23;;
47575;SDS011;33304;52.456;13.328;2023-05-07T08:16:38;1.60;;;1.50;;
47575;SDS011;33304;52.456;13.328;2023-05-07T08:19:06;1.20;;;1.10;;
47575;SDS011;33304;52.456;13.328;2023-05-07T08:21:34;1.30;;;1.20;;
47575;SDS011;33304;52.456;13.328;2023-05-07T08:24:02;1.47;;;1.37;;
47575;SDS011;33304;52.456;13.328;2023-05-07T08:26:29;1.50;;;1.37;;
47575;SDS011;33304;52.456;13.328;2023-05-07T08:28:57;1.30;;;1.20;;
47575;SDS011;33304;52.456;13.328;2023-05-07T08:31:24;1.53;;;1.10;;
47575;SDS011;33304;52.456;13.328;2023-05-07T08:33:52;1.50;;;1.13;;
47575;SDS011;33304;52.456;13.328;2023-05-07T08:36:19;1.33;;;1.20;;
47575;SDS011;33304;52.456;13.328;2023-05-07T08:38:46;1.40;;;1.30;;
47575;SDS011;33304;52.456;13.328;2023-05-07T08:41:13;1.00;;;1.00;;
47575;SDS011;33304;52.456;13.328;2023-05-07T08:43:42;1.30;;;1.20;;
47575;SDS011;33304;52.456;13.328;2023-05-07T08:46:17;2.43;;;1.10;;
47575;SDS011;33304;52.456;13.328;2023-05-07T08:48:47;2.20;;;1.23;;
47575;SDS011;33304;52.456;13.328;2023-05-07T08:51:15;1.50;;;1.40;;
47575;SDS011;33304;52.456;13.328;2023-05-07T08:53:45;1.10;;;1.00;;
47575;SDS011;33304;52.456;13.328;2023-05-07T08:56:18;1.33;;;1.23;;
47575;SDS011;33304;52.456;13.328;2023-05-07T08:58:47;1.17;;;1.07;;
47575;SDS011;33304;52.456;13.328;2023-05-07T09:01:15;0.93;;;0.93;;
47575;SDS011;33304;52.456;13.328;2023-05-07T09:03:47;1.80;;;1.03;;
47575;SDS011;33304;52.456;13.328;2023-05-07T09:06:16;1.27;;;1.17;;
47575;SDS011;33304;52.456;13.328;2023-05-07T09:08:44;2.17;;;1.30;;
47575;SDS011;33304;52.456;13.328;2023-05-07T09:11:19;0.90;;;0.90;;
47575;SDS011;33304;52.456;13.328;2023-05-07T09:13:48;1.57;;;1.20;;
47575;SDS011;33304;52.456;13.328;2023-05-07T09:16:17;1.20;;;1.00;;
47575;SDS011;33304;52.456;13.328;2023-05-07T09:18:48;0.73;;;0.73;;
47575;SDS011;33304;52.456;13.328;2023-05-07T09:21:18;1.10;;;1.00;;
47575;SDS011;33304;52.456;13.328;2023-05-07T09:23:48;1.53;;;1.20;;
47575;SDS011;33304;52.456;13.328;2023-05-07T09:26:15;1.77;;;1.10;;
47575;SDS011;33304;52.456;13.328;2023-05-07T09:32:14;0.80;;;0.80;;
47575;SDS011;33304;52.456;13.328;2023-05-07T09:34:42;1.93;;;1.40;;
47575;SDS011;33304;52.456;13.328;2023-05-07T09:37:11;1.37;;;1.27;;
47575;SDS011;33304;52.456;13.328;2023-05-07T09:39:40;1.37;;;1.07;;
47575;SDS011;33304;52.456;13.328;2023-05-07T09:42:08;1.83;;;1.20;;
47575;SDS011;33304;52.456;13.328;2023-05-07T09:44:37;0.87;;;0.70;;
47575;SDS011;33304;52.456;13.328;2023-05-07T09:47:10;1.00;;;0.90;;
47575;SDS011;33304;52.456;13.328;2023-05-07T09:49:46;0.90;;;0.90;;
47575;SDS011;33304;52.456;13.328;2023-05-07T09:52:17;1.67;;;1.20;;
47575;SDS011;33304;52.456;13.328;2023-05-07T09:54:49;1.20;;;0.93;;
47575;SDS011;33304;52.456;13.328;2023-05-07T09:57:21;0.80;;;0.80;;
47575;SDS011;33304;52.456;13.328;2023-05-07T09:59:54;2.37;;;1.17;;
47575;SDS011;33304;52.456;13.328;2023-05-07T10:02:23;0.87;;;0.87;;
47575;SDS011;33304;52.456;13.328;2023-05-07T10:04:57;2.30;;;1.10;;
47575;SDS011;33304;52.456;13.328;2023-05-07T10:07:29;1.10;;;0.90;;
47575;SDS011;33304;52.456;13.328;2023-05-07T10:10:03;1.50;;;1.10;;
47575;SDS011;33304;52.456;13.328;2023-05-07T10:12:36;1.87;;;1.00;;
47575;SDS011;33304;52.456;13.328;2023-05-07T10:15:11;1.27;;;1.17;;
47575;SDS011;33304;52.456;13.328;2023-05-07T10:17:42;1.20;;;1.10;;
47575;SDS011;33304;52.456;13.328;2023-05-07T10:20:12;1.43;;;1.00;;
47575;SDS011;33304;52.456;13.328;2023-05-07T10:22:43;2.50;;;1.20;;
47575;SDS011;33304;52.456;13.328;2023-05-07T10:25:14;0.93;;;0.93;;
47575;SDS011;33304;52.456;13.328;2023-05-07T10:27:44;0.90;;;0.90;;
47575;SDS011;33304;52.456;13.328;2023-05-07T10:30:15;2.60;;;1.10;;
47575;SDS011;33304;52.456;13.328;2023-05-07T10:32:53;1.00;;;1.00;;
47575;SDS011;33304;52.456;13.328;2023-05-07T10:35:30;1.00;;;1.00;;
47575;SDS011;33304;52.456;13.328;2023-05-07T10:38:03;1.60;;;1.13;;
47575;SDS011;33304;52.456;13.328;2023-05-07T10:40:33;1.10;;;1.00;;
47575;SDS011;33304;52.456;13.328;2023-05-07T10:43:02;1.10;;;0.77;;
47575;SDS011;33304;52.456;13.328;2023-05-07T10:45:37;1.00;;;0.90;;
47575;SDS011;33304;52.456;13.328;2023-05-07T10:48:05;0.73;;;0.73;;
47575;SDS011;33304;52.456;13.328;2023-05-07T10:50:35;1.70;;;0.80;;
47575;SDS011;33304;52.456;13.328;2023-05-07T10:53:20;0.90;;;0.90;;
47575;SDS011;33304;52.456;13.328;2023-05-07T10:56:24;0.90;;;0.90;;
47575;SDS011;33304;52.456;13.328;2023-05-07T11:02:00;0.83;;;0.83;;
47575;SDS011;33304;52.456;13.328;2023-05-07T11:04:45;0.83;;;0.70;;
47575;SDS011;33304;52.456;13.328;2023-05-07T11:07:35;0.87;;;0.87;;
47575;SDS011;33304;52.456;13.328;2023-05-07T11:10:10;0.90;;;0.90;;
47575;SDS011;33304;52.456;13.328;2023-05-07T11:13:06;0.93;;;0.83;;
47575;SDS011;33304;52.456;13.328;2023-05-07T11:15:43;0.90;;;0.80;;
47575;SDS011;33304;52.456;13.328;2023-05-07T11:18:38;1.30;;;1.20;;
47575;SDS011;33304;52.456;13.328;2023-05-07T11:21:13;0.90;;;0.90;;
47575;SDS011;33304;52.456;13.328;2023-05-07T11:24:07;0.87;;;0.87;;
47575;SDS011;33304;52.456;13.328;2023-05-07T11:26:47;1.97;;;1.00;;
47575;SDS011;33304;52.456;13.328;2023-05-07T11:29:17;0.90;;;0.90;;
47575;SDS011;33304;52.456;13.328;2023-05-07T11:31:49;0.80;;;0.80;;
47575;SDS011;33304;52.456;13.328;2023-05-07T11:34:21;1.13;;;0.80;;
47575;SDS011;33304;52.456;13.328;2023-05-07T11:36:51;2.93;;;1.00;;
47575;SDS011;33304;52.456;13.328;2023-05-07T11:39:27;0.90;;;0.90;;
47575;SDS011;33304;52.456;13.328;2023-05-07T11:41:56;0.90;;;0.90;;
47575;SDS011;33304;52.456;13.328;2023-05-07T11:44:24;1.23;;;1.10;;
47575;SDS011;33304;52.456;13.328;2023-05-07T11:46:51;0.87;;;0.80;;
47575;SDS011;33304;52.456;13.328;2023-05-07T11:49:18;1.13;;;1.03;;
47575;SDS011;33304;52.456;13.328;2023-05-07T11:51:45;0.90;;;0.90;;
47575;SDS011;33304;52.456;13.328;2023-05-07T11:54:15;0.97;;;0.97;;
47575;SDS011;33304;52.456;13.328;2023-05-07T11:56:44;0.90;;;0.90;;
47575;SDS011;33304;52.456;13.328;2023-05-07T11:59:16;0.90;;;0.90;;
47575;SDS011;33304;52.456;13.328;2023-05-07T12:01:45;1.03;;;0.97;;
47575;SDS011;33304;52.456;13.328;2023-05-07T12:04:12;1.20;;;1.10;;
47575;SDS011;33304;52.456;13.328;2023-05-07T12:06:39;1.00;;;1.00;;
47575;SDS011;33304;52.456;13.328;2023-05-07T12:09:06;1.27;;;1.13;;
47575;SDS011;33304;52.456;13.328;2023-05-07T12:11:37;0.97;;;0.97;;
47575;SDS011;33304;52.456;13.328;2023-05-07T12:14:07;0.90;;;0.90;;
47575;SDS011;33304;52.456;13.328;2023-05-07T12:16:34;0.80;;;0.80;;
47575;SDS011;33304;52.456;13.328;2023-05-07T12:19:01;0.93;;;0.83;;
47575;SDS011;33304;52.456;13.328;2023-05-07T12:21:29;0.90;;;0.90;;
47575;SDS011;33304;52.456;13.328;2023-05-07T12:23:56;0.80;;;0.80;;
47575;SDS011;33304;52.456;13.328;2023-05-07T12:26:23;0.60;;;0.60;;
47575;SDS011;33304;52.456;13.328;2023-05-07T12:28:51;1.10;;;0.90;;
47575;SDS011;33304;52.456;13.328;2023-05-07T12:31:19;1.00;;;1.00;;
47575;SDS011;33304;52.456;13.328;2023-05-07T12:33:46;1.30;;;0.93;;
47575;SDS011;33304;52.456;13.328;2023-05-07T12:36:13;1.67;;;0.90;;
47575;SDS011;33304;52.456;13.328;2023-05-07T12:38:41;0.80;;;0.80;;
47575;SDS011;33304;52.456;13.328;2023-05-07T12:41:09;0.83;;;0.83;;
47575;SDS011;33304;52.456;13.328;2023-05-07T12:43:37;1.10;;;1.00;;
47575;SDS011;33304;52.456;13.328;2023-05-07T12:46:05;1.17;;;1.17;;
47575;SDS011;33304;52.456;13.328;2023-05-07T12:48:35;1.70;;;1.10;;
47575;SDS011;33304;52.456;13.328;2023-05-07T12:51:05;1.00;;;1.00;;
47575;SDS011;33304;52.456;13.328;2023-05-07T12:53:34;1.20;;;1.20;;
47575;SDS011;33304;52.456;13.328;2023-05-07T12:56:07;3.17;;;1.27;;
47575;SDS011;33304;52.456;13.328;2023-05-07T12:58:35;1.10;;;1.00;;
47575;SDS011;33304;52.456;13.328;2023-05-07T13:01:04;0.90;;;0.90;;
47575;SDS011;33304;52.456;13.328;2023-05-07T13:03:33;0.70;;;0.70;;
47575;SDS011;33304;52.456;13.328;2023-05-07T13:06:02;0.80;;;0.80;;
47575;SDS011;33304;52.456;13.328;2023-05-07T13:08:32;0.80;;;0.80;;
47575;SDS011;33304;52.456;13.328;2023-05-07T13:11:02;0.90;;;0.90;;
47575;SDS011;33304;52.456;13.328;2023-05-07T13:13:30;0.67;;;0.67;;
47575;SDS011;33304;52.456;13.328;2023-05-07T13:15:58;1.43;;;0.90;;
47575;SDS011;33304;52.456;13.328;2023-05-07T13:18:25;0.90;;;0.90;;
47575;SDS011;33304;52.456;13.328;2023-05-07T13:20:54;0.90;;;0.90;;
47575;SDS011;33304;52.456;13.328;2023-05-07T13:23:22;0.87;;;0.83;;
47575;SDS011;33304;52.456;13.328;2023-05-07T13:25:49;0.87;;;0.87;;
47575;SDS011;33304;52.456;13.328;2023-05-07T13:28:18;2.33;;;0.93;;
47575;SDS011;33304;52.456;13.328;2023-05-07T13:30:45;1.63;;;1.00;;
47575;SDS011;33304;52.456;13.328;2023-05-07T13:33:12;0.60;;;0.60;;
47575;SDS011;33304;52.456;13.328;2023-05-07T13:35:41;0.90;;;0.90;;
47575;SDS011;33304;52.456;13.328;2023-05-07T13:38:09;1.17;;;1.10;;
47575;SDS011;33304;52.456;13.328;2023-05-07T13:40:36;1.70;;;1.10;;
47575;SDS011;33304;52.456;13.328;2023-05-07T13:43:05;1.57;;;1.40;;
47575;SDS011;33304;52.456;13.328;2023-05-07T13:45:33;1.23;;;1.13;;
47575;SDS011;33304;52.456;13.328;2023-05-07T13:48:00;1.00;;;1.00;;
47575;SDS011;33304;52.456;13.328;2023-05-07T13:50:27;1.00;;;0.90;;
47575;SDS011;33304;52.456;13.328;2023-05-07T13:52:55;0.77;;;0.77;;
47575;SDS011;33304;52.456;13.328;2023-05-07T13:55:23;0.80;;;0.80;;
47575;SDS011;33304;52.456;13.328;2023-05-07T13:57:54;1.33;;;0.77;;
47575;SDS011;33304;52.456;13.328;2023-05-07T14:00:22;0.60;;;0.60;;
47575;SDS011;33304;52.456;13.328;2023-05-07T14:02:51;0.90;;;0.90;;
47575;SDS011;33304;52.456;13.328;2023-05-07T14:05:18;0.80;;;0.80;;
47575;SDS011;33304;52.456;13.328;2023-05-07T14:07:46;1.30;;;1.20;;
47575;SDS011;33304;52.456;13.328;2023-05-07T14:10:14;1.10;;;1.10;;
47575;SDS011;33304;52.456;13.328;2023-05-07T14:12:43;1.10;;;1.10;;
47575;SDS011;33304;52.456;13.328;2023-05-07T14:15:13;1.97;;;1.87;;
47575;SDS011;33304;52.456;13.328;2023-05-07T14:17:40;1.30;;;1.20;;
47575;SDS011;33304;52.456;13.328;2023-05-07T14:20:07;1.00;;;1.00;;
47575;SDS011;33304;52.456;13.328;2023-05-07T14:22:36;0.80;;;0.80;;
47575;SDS011;33304;52.456;13.328;2023-05-07T14:25:03;1.20;;;1.10;;
47575;SDS011;33304;52.456;13.328;2023-05-07T14:27:31;0.90;;;0.90;;
47575;SDS011;33304;52.456;13.328;2023-05-07T14:29:59;0.90;;;0.90;;
47575;SDS011;33304;52.456;13.328;2023-05-07T14:32:27;0.80;;;0.80;;
47575;SDS011;33304;52.456;13.328;2023-05-07T14:34:54;0.80;;;0.80;;
47575;SDS011;33304;52.456;13.328;2023-05-07T14:37:21;0.80;;;0.80;;
47575;SDS011;33304;52.456;13.328;2023-05-07T14:39:48;0.90;;;0.90;;
47575;SDS011;33304;52.456;13.328;2023-05-07T14:42:15;1.10;;;1.00;;
47575;SDS011;33304;52.456;13.328;2023-05-07T14:44:42;0.80;;;0.80;;
47575;SDS011;33304;52.456;13.328;2023-05-07T14:47:12;1.00;;;0.90;;
47575;SDS011;33304;52.456;13.328;2023-05-07T14:49:39;0.90;;;0.90;;
47575;SDS011;33304;52.456;13.328;2023-05-07T14:52:13;0.83;;;0.83;;